createdAt,value
2018-06-21T00:01:18.696Z,8.30
2018-06-21T00:03:47.095Z,8.60
2018-06-21T00:06:15.537Z,8.43
2018-06-21T00:08:43.969Z,8.40
2018-06-21T00:11:12.382Z,8.93
2018-06-21T00:13:40.904Z,9.70
2018-06-21T00:16:09.338Z,8.50
2018-06-21T00:18:37.760Z,9.03
2018-06-21T00:21:06.441Z,9.27
2018-06-21T00:23:34.977Z,10.17
2018-06-21T00:26:03.399Z,9.90
2018-06-21T00:28:31.840Z,10.00
2018-06-21T00:31:00.237Z,10.67
2018-06-21T00:33:28.646Z,9.57
2018-06-21T00:35:57.122Z,10.03
2018-06-21T00:38:25.541Z,9.43
2018-06-21T00:40:54.012Z,8.60
2018-06-21T00:43:22.441Z,7.77
2018-06-21T00:45:51.098Z,7.60
2018-06-21T00:48:19.480Z,8.20
2018-06-21T00:50:47.897Z,7.93
2018-06-21T00:53:16.280Z,6.87
2018-06-21T00:55:50.148Z,7.87
2018-06-21T00:58:18.549Z,7.27
2018-06-21T01:00:46.900Z,7.93
2018-06-21T01:03:15.264Z,7.53
2018-06-21T01:05:43.602Z,8.53
2018-06-21T01:08:11.945Z,7.23
2018-06-21T01:10:41.460Z,8.67
2018-06-21T01:13:09.885Z,8.10
2018-06-21T01:15:38.245Z,8.97
2018-06-21T01:18:06.612Z,8.10
2018-06-21T01:20:35.366Z,8.07
2018-06-21T01:23:03.728Z,8.53
2018-06-21T01:25:32.175Z,8.13
2018-06-21T01:28:00.694Z,7.97
2018-06-21T01:30:29.059Z,7.67
2018-06-21T01:32:57.425Z,8.30
2018-06-21T01:35:25.985Z,7.93
2018-06-21T01:37:54.376Z,8.40
2018-06-21T01:40:22.820Z,7.47
2018-06-21T01:42:50.932Z,7.17
2018-06-21T01:45:19.764Z,7.97
2018-06-21T01:47:48.141Z,7.53
2018-06-21T01:50:16.517Z,7.70
2018-06-21T01:52:44.883Z,9.00
2018-06-21T01:55:13.281Z,7.90
2018-06-21T01:57:41.650Z,7.90
2018-06-21T02:00:10.021Z,7.97
2018-06-21T02:02:38.378Z,8.00
2018-06-21T02:05:06.806Z,7.47
2018-06-21T02:07:35.161Z,7.33
2018-06-21T02:10:03.593Z,7.20
2018-06-21T02:12:31.952Z,6.70
2018-06-21T02:15:00.387Z,6.90
2018-06-21T02:17:29.502Z,6.03
2018-06-21T02:19:57.816Z,7.27
2018-06-21T02:22:26.218Z,6.60
2018-06-21T02:24:54.611Z,6.00
2018-06-21T02:27:22.981Z,5.40
2018-06-21T02:29:51.366Z,4.90
2018-06-21T02:32:19.792Z,4.27
2018-06-21T02:34:48.643Z,4.23
2018-06-21T02:37:17.100Z,3.93
2018-06-21T02:39:45.444Z,4.23
2018-06-21T02:42:13.826Z,3.40
2018-06-21T02:44:42.401Z,3.77
2018-06-21T02:47:10.756Z,3.93
2018-06-21T02:49:39.171Z,3.87
2018-06-21T02:52:07.561Z,3.73
2018-06-21T02:54:35.939Z,3.00
2018-06-21T02:57:04.379Z,3.43
2018-06-21T02:59:32.752Z,3.23
2018-06-21T03:02:01.520Z,2.87
2018-06-21T03:04:29.982Z,2.83
2018-06-21T03:06:58.333Z,3.20
2018-06-21T03:09:26.735Z,2.40
2018-06-21T03:11:55.153Z,3.13
2018-06-21T03:14:23.547Z,3.07
2018-06-21T03:16:51.936Z,3.47
2018-06-21T03:19:20.058Z,2.93
2018-06-21T03:21:48.440Z,3.50
2018-06-21T03:24:16.832Z,2.43
2018-06-21T03:26:45.248Z,2.27
2018-06-21T03:29:13.619Z,2.13
2018-06-21T03:31:42.013Z,2.90
2018-06-21T03:34:10.749Z,1.87
2018-06-21T03:36:39.144Z,1.67
2018-06-21T03:39:07.704Z,2.10
2018-06-21T03:41:36.186Z,2.33
2018-06-21T03:44:04.590Z,2.30
2018-06-21T03:46:32.958Z,2.30
2018-06-21T03:49:01.385Z,2.10
2018-06-21T03:51:29.839Z,1.90
2018-06-21T03:53:58.173Z,1.90
2018-06-21T03:56:26.728Z,2.23
2018-06-21T03:58:55.175Z,2.50
2018-06-21T04:01:23.614Z,2.00
2018-06-21T04:03:52.044Z,2.10
2018-06-21T04:06:20.175Z,1.80
2018-06-21T04:08:48.623Z,1.80
2018-06-21T04:11:17.003Z,1.97
2018-06-21T04:13:45.416Z,2.20
2018-06-21T04:16:13.809Z,1.87
2018-06-21T04:18:42.204Z,1.83
2018-06-21T04:21:10.585Z,2.10
2018-06-21T04:23:39.021Z,2.20
2018-06-21T04:26:07.523Z,2.00
2018-06-21T04:28:35.936Z,2.00
2018-06-21T04:31:04.315Z,2.10
2018-06-21T04:33:32.756Z,1.97
2018-06-21T04:36:01.118Z,2.60
2018-06-21T04:38:29.955Z,2.13
2018-06-21T04:40:58.396Z,2.20
2018-06-21T04:43:26.787Z,2.07
2018-06-21T04:45:55.209Z,2.23
2018-06-21T04:48:23.793Z,2.30
2018-06-21T04:50:52.223Z,2.00
2018-06-21T04:53:20.726Z,2.03
2018-06-21T04:55:49.086Z,1.60
2018-06-21T04:58:17.489Z,2.00
2018-06-21T05:00:46.103Z,1.90
2018-06-21T05:03:14.493Z,1.53
2018-06-21T05:05:43.057Z,1.87
2018-06-21T05:08:11.551Z,1.57
2018-06-21T05:10:39.910Z,2.00
2018-06-21T05:13:08.342Z,1.93
2018-06-21T05:15:36.758Z,1.70
2018-06-21T05:18:05.497Z,2.03
2018-06-21T05:20:33.929Z,2.07
2018-06-21T05:23:02.286Z,1.80
2018-06-21T05:25:30.715Z,1.57
2018-06-21T05:27:59.097Z,1.70
2018-06-21T05:30:27.432Z,2.10
2018-06-21T05:32:56.117Z,1.80
2018-06-21T05:35:24.474Z,1.80
2018-06-21T05:37:52.836Z,1.67
2018-06-21T05:40:31.444Z,1.80
2018-06-21T05:43:00.897Z,1.73
2018-06-21T05:45:29.947Z,1.87
2018-06-21T05:48:00.133Z,1.87
2018-06-21T05:50:29.781Z,1.80
2018-06-21T05:52:58.965Z,1.60
2018-06-21T05:55:27.731Z,2.10
2018-06-21T05:57:56.130Z,1.80
2018-06-21T06:00:24.659Z,1.50
2018-06-21T06:02:53.419Z,2.20
2018-06-21T06:05:21.895Z,1.30
2018-06-21T06:07:50.317Z,2.30
2018-06-21T06:10:18.686Z,1.50
2018-06-21T06:12:47.008Z,1.67
2018-06-21T06:15:15.333Z,1.70
2018-06-21T06:17:43.659Z,1.37
2018-06-21T06:20:11.949Z,1.77
2018-06-21T06:22:40.309Z,1.70
2018-06-21T06:25:08.623Z,1.60
2018-06-21T06:27:36.980Z,1.60
2018-06-21T06:30:06.372Z,2.07
2018-06-21T06:32:34.950Z,1.83
2018-06-21T06:35:03.360Z,2.10
2018-06-21T06:37:31.737Z,1.57
2018-06-21T06:40:00.091Z,2.43
2018-06-21T06:42:28.457Z,1.90
2018-06-21T06:44:56.816Z,1.77
2018-06-21T06:47:25.582Z,2.83
2018-06-21T06:49:54.106Z,1.33
2018-06-21T06:52:22.830Z,1.47
2018-06-21T06:54:51.608Z,1.83
2018-06-21T06:57:20.251Z,1.20
2018-06-21T06:59:48.616Z,1.50
2018-06-21T07:02:16.960Z,1.67
2018-06-21T07:04:45.347Z,1.60
2018-06-21T07:07:13.889Z,1.30
2018-06-21T07:09:42.178Z,1.47
2018-06-21T07:12:10.954Z,1.47
2018-06-21T07:14:39.236Z,1.77
2018-06-21T07:17:07.531Z,1.83
2018-06-21T07:19:35.884Z,1.73
2018-06-21T07:22:04.143Z,1.43
2018-06-21T07:24:32.419Z,1.70
2018-06-21T07:27:00.711Z,1.20
2018-06-21T07:29:28.894Z,2.03
2018-06-21T07:31:57.365Z,1.87
2018-06-21T07:34:25.635Z,1.73
2018-06-21T07:36:53.889Z,1.60
2018-06-21T07:39:22.162Z,1.80
2018-06-21T07:41:50.439Z,1.73
2018-06-21T07:44:18.761Z,1.47
2018-06-21T07:46:47.069Z,1.30
2018-06-21T07:49:15.525Z,1.90
2018-06-21T07:51:43.929Z,1.53
2018-06-21T07:54:12.207Z,1.80
2018-06-21T07:56:41.160Z,1.40
2018-06-21T07:59:09.558Z,1.63
2018-06-21T08:01:38.041Z,1.23
2018-06-21T08:04:06.518Z,1.70
2018-06-21T08:06:34.894Z,1.43
2018-06-21T08:09:04.710Z,1.73
2018-06-21T08:11:32.990Z,1.70
2018-06-21T08:14:01.284Z,1.40
2018-06-21T08:16:29.835Z,1.83
2018-06-21T08:18:58.142Z,2.23
2018-06-21T08:21:26.407Z,1.40
2018-06-21T08:23:54.706Z,1.90
2018-06-21T08:26:22.980Z,1.97
2018-06-21T08:28:51.277Z,1.67
2018-06-21T08:31:19.535Z,2.33
2018-06-21T08:33:47.805Z,2.07
2018-06-21T08:36:16.071Z,1.90
2018-06-21T08:38:44.350Z,1.50
2018-06-21T08:41:12.932Z,1.73
2018-06-21T08:43:41.230Z,1.03
2018-06-21T08:46:09.570Z,1.27
2018-06-21T08:48:37.995Z,1.50
2018-06-21T08:51:07.864Z,1.20
2018-06-21T08:53:36.447Z,1.80
2018-06-21T08:56:04.731Z,2.10
2018-06-21T08:58:32.999Z,1.60
2018-06-21T09:01:01.303Z,1.87
2018-06-21T09:03:29.643Z,1.73
2018-06-21T09:05:57.948Z,2.13
2018-06-21T09:08:26.245Z,1.77
2018-06-21T09:10:54.485Z,1.60
2018-06-21T09:13:23.027Z,2.00
2018-06-21T09:15:51.323Z,2.33
2018-06-21T09:18:19.631Z,1.70
2018-06-21T09:20:48.219Z,1.20
2018-06-21T09:23:16.531Z,1.77
2018-06-21T09:25:44.809Z,1.90
2018-06-21T09:28:13.044Z,1.30
2018-06-21T09:30:41.304Z,1.47
2018-06-21T09:33:09.610Z,1.60
2018-06-21T09:35:38.056Z,1.10
2018-06-21T09:40:53.456Z,2.07
2018-06-21T09:43:26.973Z,1.37
2018-06-21T09:46:00.912Z,2.03
2018-06-21T09:48:30.581Z,1.63
2018-06-21T09:51:00.034Z,1.50
2018-06-21T09:53:28.745Z,1.43
2018-06-21T09:55:57.688Z,1.60
2018-06-21T09:58:25.975Z,1.93
2018-06-21T10:00:59.611Z,1.30
2018-06-21T10:03:27.940Z,1.20
2018-06-21T10:05:56.455Z,2.00
2018-06-21T10:08:24.734Z,1.70
2018-06-21T10:10:53.031Z,1.60
2018-06-21T10:13:21.354Z,1.63
2018-06-21T10:15:49.711Z,1.70
2018-06-21T10:18:18.426Z,2.13
2018-06-21T10:20:46.766Z,1.43
2018-06-21T10:23:15.056Z,2.00
2018-06-21T10:25:43.305Z,1.43
2018-06-21T10:28:11.572Z,1.77
2018-06-21T10:30:39.811Z,1.80
2018-06-21T10:33:08.083Z,1.93
2018-06-21T10:35:36.360Z,1.73
2018-06-21T10:38:04.645Z,1.57
2018-06-21T10:40:32.884Z,1.40
2018-06-21T10:43:01.142Z,1.20
2018-06-21T10:45:29.401Z,1.40
2018-06-21T10:47:57.680Z,1.57
2018-06-21T10:50:25.964Z,1.47
2018-06-21T10:52:54.238Z,1.57
2018-06-21T10:55:22.508Z,1.00
2018-06-21T10:57:50.785Z,1.10
2018-06-21T11:00:19.091Z,1.53
2018-06-21T11:02:47.387Z,1.47
2018-06-21T11:05:15.823Z,1.63
2018-06-21T11:07:44.084Z,1.90
2018-06-21T11:10:12.576Z,1.97
2018-06-21T11:12:40.860Z,1.63
2018-06-21T11:15:09.144Z,1.40
2018-06-21T11:17:37.577Z,1.43
2018-06-21T11:20:06.211Z,1.53
2018-06-21T11:22:34.478Z,1.47
2018-06-21T11:25:02.789Z,1.40
2018-06-21T11:27:31.096Z,1.47
2018-06-21T11:29:59.363Z,1.53
2018-06-21T11:32:27.653Z,1.67
2018-06-21T11:34:55.923Z,1.37
2018-06-21T11:37:24.201Z,1.97
2018-06-21T11:39:52.489Z,1.33
2018-06-21T11:42:20.787Z,1.33
2018-06-21T11:44:49.108Z,1.47
2018-06-21T11:47:17.376Z,1.57
2018-06-21T11:49:45.644Z,1.53
2018-06-21T11:52:14.017Z,1.60
2018-06-21T11:54:42.443Z,2.27
2018-06-21T11:57:10.738Z,1.70
2018-06-21T11:59:39.135Z,1.77
2018-06-21T12:02:07.366Z,1.53
2018-06-21T12:04:35.423Z,1.67
2018-06-21T12:07:03.692Z,1.57
2018-06-21T12:09:31.965Z,1.70
2018-06-21T12:12:00.235Z,1.90
2018-06-21T12:14:28.667Z,2.23
2018-06-21T12:16:56.951Z,1.10
2018-06-21T12:19:25.257Z,1.37
2018-06-21T12:21:53.529Z,1.30
2018-06-21T12:24:21.842Z,1.43
2018-06-21T12:26:50.112Z,1.27
2018-06-21T12:29:18.395Z,2.27
2018-06-21T12:31:46.711Z,1.70
2018-06-21T12:34:14.984Z,1.30
2018-06-21T12:36:43.268Z,1.77
2018-06-21T12:39:11.540Z,1.33
2018-06-21T12:41:39.866Z,1.20
2018-06-21T12:44:08.131Z,1.63
2018-06-21T12:46:36.519Z,1.50
2018-06-21T12:49:04.810Z,1.27
2018-06-21T12:51:33.227Z,1.00
2018-06-21T12:54:01.562Z,1.07
2018-06-21T12:56:29.858Z,1.43
2018-06-21T12:58:58.098Z,1.37
2018-06-21T13:01:26.379Z,1.10
2018-06-21T13:03:54.662Z,1.90
2018-06-21T13:06:22.946Z,1.67
2018-06-21T13:09:02.648Z,1.23
2018-06-21T13:11:40.926Z,2.23
2018-06-21T13:14:22.683Z,2.00
2018-06-21T13:16:50.982Z,1.70
2018-06-21T13:19:19.270Z,1.23
2018-06-21T13:21:47.563Z,1.40
2018-06-21T13:24:15.823Z,1.57
2018-06-21T13:26:44.070Z,1.40
2018-06-21T13:29:12.327Z,1.33
2018-06-21T13:31:40.595Z,1.50
2018-06-21T13:34:08.850Z,1.20
2018-06-21T13:36:37.154Z,1.30
2018-06-21T13:39:07.059Z,2.00
2018-06-21T13:41:35.330Z,1.40
2018-06-21T13:44:03.578Z,1.40
2018-06-21T13:46:31.936Z,1.63
2018-06-21T13:49:00.246Z,1.77
2018-06-21T13:51:28.541Z,2.10
2018-06-21T13:53:56.796Z,1.40
2018-06-21T13:56:25.119Z,1.67
2018-06-21T13:58:53.388Z,1.40
2018-06-21T14:01:22.073Z,1.17
2018-06-21T14:03:50.362Z,1.43
2018-06-21T14:06:18.627Z,1.87
2018-06-21T14:08:46.908Z,1.87
2018-06-21T14:11:15.476Z,2.17
2018-06-21T14:13:43.751Z,1.70
2018-06-21T14:16:12.078Z,2.10
2018-06-21T14:18:40.590Z,1.80
2018-06-21T14:21:08.864Z,1.60
2018-06-21T14:23:37.182Z,1.53
2018-06-21T14:26:05.911Z,1.90
2018-06-21T14:28:34.576Z,1.93
2018-06-21T14:31:02.919Z,1.73
2018-06-21T14:33:30.970Z,1.33
2018-06-21T14:35:59.791Z,1.75
2018-06-21T14:38:28.640Z,1.60
2018-06-21T14:40:57.556Z,2.27
2018-06-21T14:43:26.400Z,2.77
2018-06-21T14:45:55.272Z,2.52
2018-06-21T14:48:23.631Z,2.47
2018-06-21T14:50:52.064Z,1.80
2018-06-21T14:53:20.340Z,2.10
2018-06-21T14:55:48.677Z,2.30
2018-06-21T14:58:17.596Z,1.92
2018-06-21T15:00:46.546Z,1.87
2018-06-21T15:03:15.108Z,1.83
2018-06-21T15:05:43.453Z,1.70
2018-06-21T15:08:11.784Z,1.57
2018-06-21T15:10:40.275Z,1.87
2018-06-21T15:13:08.608Z,1.97
2018-06-21T15:15:36.920Z,2.13
2018-06-21T15:18:05.551Z,1.93
2018-06-21T15:20:34.189Z,1.70
2018-06-21T15:23:02.433Z,1.80
2018-06-21T15:25:31.197Z,2.20
2018-06-21T15:27:59.490Z,1.80
2018-06-21T15:30:28.097Z,2.20
2018-06-21T15:32:56.960Z,2.35
2018-06-21T15:35:25.274Z,2.10
2018-06-21T15:37:53.557Z,1.30
2018-06-21T15:40:21.865Z,2.10
2018-06-21T15:42:50.180Z,1.90
2018-06-21T15:45:18.501Z,1.83
2018-06-21T15:47:46.930Z,1.93
2018-06-21T15:50:15.265Z,1.90
2018-06-21T15:52:43.599Z,2.47
2018-06-21T15:55:11.933Z,2.07
2018-06-21T15:57:40.464Z,1.95
2018-06-21T16:00:10.781Z,1.63
2018-06-21T16:02:40.529Z,2.10
2018-06-21T16:05:09.415Z,1.87
2018-06-21T16:07:38.546Z,1.17
2018-06-21T16:10:07.413Z,1.85
2018-06-21T16:12:36.250Z,0.90
2018-06-21T16:15:05.136Z,1.50
2018-06-21T16:17:33.979Z,1.02
2018-06-21T16:20:02.884Z,1.87
2018-06-21T16:22:31.709Z,1.10
2018-06-21T16:25:00.026Z,1.45
2018-06-21T16:27:28.888Z,1.25
2018-06-21T16:29:57.767Z,1.10
2018-06-21T16:32:26.614Z,1.85
2018-06-21T16:34:55.874Z,1.47
2018-06-21T16:37:24.860Z,1.37
2018-06-21T16:39:53.742Z,1.47
2018-06-21T16:42:22.558Z,1.70
2018-06-21T16:44:51.400Z,1.82
2018-06-21T16:47:20.265Z,1.22
2018-06-21T16:49:49.101Z,1.62
2018-06-21T16:52:17.622Z,1.50
2018-06-21T16:54:45.921Z,1.20
2018-06-21T16:57:14.257Z,1.10
2018-06-21T16:59:42.778Z,1.57
2018-06-21T17:02:11.189Z,1.50
2018-06-21T17:04:39.741Z,1.33
2018-06-21T17:07:08.560Z,1.72
2018-06-21T17:09:37.457Z,1.27
2018-06-21T17:12:06.515Z,1.90
2018-06-21T17:14:35.641Z,2.00
2018-06-21T17:17:04.076Z,1.65
2018-06-21T17:19:32.792Z,1.63
2018-06-21T17:22:01.321Z,2.03
2018-06-21T17:24:29.625Z,1.83
2018-06-21T17:26:57.892Z,1.93
2018-06-21T17:29:26.239Z,1.77
2018-06-21T17:31:54.911Z,1.50
2018-06-21T17:34:23.262Z,1.53
2018-06-21T17:36:51.584Z,1.40
2018-06-21T17:39:20.101Z,1.50
2018-06-21T17:41:48.425Z,1.63
2018-06-21T17:44:16.743Z,1.13
2018-06-21T17:46:45.246Z,1.20
2018-06-21T17:49:13.549Z,1.53
2018-06-21T17:51:41.824Z,1.70
2018-06-21T17:54:10.186Z,1.60
2018-06-21T17:56:38.658Z,1.80
2018-06-21T17:59:07.048Z,1.67
2018-06-21T18:01:35.623Z,1.80
2018-06-21T18:04:03.964Z,1.50
2018-06-21T18:06:32.260Z,1.57
2018-06-21T18:09:00.659Z,1.60
2018-06-21T18:11:28.999Z,2.10
2018-06-21T18:13:57.287Z,1.43
2018-06-21T18:16:25.829Z,1.50
2018-06-21T18:18:54.491Z,1.50
2018-06-21T18:21:22.862Z,1.50
2018-06-21T18:23:50.900Z,1.70
2018-06-21T18:26:19.193Z,1.43
2018-06-21T18:28:47.528Z,1.60
2018-06-21T18:31:15.872Z,2.10
2018-06-21T18:33:44.284Z,1.87
2018-06-21T18:36:13.024Z,1.40
2018-06-21T18:38:41.341Z,1.50
2018-06-21T18:41:10.011Z,1.63
2018-06-21T18:43:41.864Z,1.40
2018-06-21T18:46:10.206Z,1.67
2018-06-21T18:48:38.537Z,1.73
2018-06-21T18:51:07.003Z,1.50
2018-06-21T18:53:35.310Z,1.67
2018-06-21T18:56:03.672Z,1.90
2018-06-21T18:58:32.016Z,1.80
2018-06-21T19:01:00.364Z,1.50
2018-06-21T19:03:28.680Z,1.40
2018-06-21T19:05:57.035Z,2.07
2018-06-21T19:08:30.683Z,1.77
2018-06-21T19:11:04.498Z,1.80
2018-06-21T19:13:32.827Z,1.70
2018-06-21T19:16:02.289Z,1.20
2018-06-21T19:18:32.098Z,1.80
2018-06-21T19:21:03.492Z,1.77
2018-06-21T19:23:32.866Z,1.13
2018-06-21T19:26:01.856Z,1.77
2018-06-21T19:28:30.670Z,1.80
2018-06-21T19:30:59.734Z,1.90
2018-06-21T19:33:29.559Z,1.43
2018-06-21T19:35:58.562Z,1.70
2018-06-21T19:38:28.526Z,1.50
2018-06-21T19:40:57.207Z,1.57
2018-06-21T19:43:27.488Z,1.47
2018-06-21T19:45:57.395Z,1.80
2018-06-21T19:48:25.990Z,1.40
2018-06-21T19:50:55.532Z,1.43
2018-06-21T19:53:24.229Z,1.40
2018-06-21T19:55:52.832Z,1.43
2018-06-21T19:58:21.175Z,1.70
2018-06-21T20:00:50.919Z,1.50
2018-06-21T20:03:20.417Z,1.57
2018-06-21T20:05:49.128Z,1.40
2018-06-21T20:08:18.244Z,0.90
2018-06-21T20:10:51.924Z,1.40
2018-06-21T20:13:20.708Z,1.60
2018-06-21T20:15:51.320Z,1.40
2018-06-21T20:18:20.261Z,1.43
2018-06-21T20:20:48.349Z,1.17
2018-06-21T20:23:18.231Z,1.10
2018-06-21T20:25:46.681Z,1.30
2018-06-21T20:28:15.856Z,1.73
2018-06-21T20:30:44.563Z,1.20
2018-06-21T20:33:13.073Z,1.20
2018-06-21T20:35:41.910Z,1.13
2018-06-21T20:38:10.288Z,1.07
2018-06-21T20:40:39.439Z,1.10
2018-06-21T20:43:07.873Z,1.23
2018-06-21T20:45:45.833Z,1.10
2018-06-21T20:48:14.208Z,1.33
2018-06-21T20:50:45.777Z,1.37
2018-06-21T20:53:14.119Z,1.23
2018-06-21T20:55:43.393Z,1.20
2018-06-21T20:58:11.694Z,1.30
2018-06-21T21:00:40.103Z,1.37
2018-06-21T21:03:08.621Z,1.60
2018-06-21T21:05:36.979Z,1.37
2018-06-21T21:08:05.417Z,1.60
2018-06-21T21:10:33.734Z,1.47
2018-06-21T21:13:02.537Z,1.37
2018-06-21T21:15:31.922Z,1.40
2018-06-21T21:18:00.867Z,2.10
2018-06-21T21:20:29.882Z,1.57
2018-06-21T21:22:58.649Z,1.87
2018-06-21T21:25:27.205Z,1.90
2018-06-21T21:27:55.801Z,1.90
2018-06-21T21:30:24.288Z,1.97
2018-06-21T21:32:52.682Z,1.60
2018-06-21T21:35:20.973Z,1.90
2018-06-21T21:37:49.262Z,1.67
2018-06-21T21:40:17.574Z,1.90
2018-06-21T21:42:45.918Z,1.80
2018-06-21T21:45:14.249Z,1.77
2018-06-21T21:47:42.561Z,2.13
2018-06-21T21:50:10.831Z,1.80
2018-06-21T21:52:39.238Z,1.87
2018-06-21T21:55:07.679Z,1.43
2018-06-21T21:57:35.984Z,1.37
2018-06-21T22:00:05.608Z,1.97
2018-06-21T22:02:33.904Z,1.47
2018-06-21T22:05:02.965Z,1.60
2018-06-21T22:07:31.319Z,2.00
2018-06-21T22:09:59.573Z,1.70
2018-06-21T22:12:27.819Z,1.27
2018-06-21T22:14:56.084Z,1.50
2018-06-21T22:17:24.344Z,1.60
2018-06-21T22:19:52.676Z,1.70
2018-06-21T22:22:20.948Z,1.93
2018-06-21T22:24:49.239Z,1.67
2018-06-21T22:27:17.494Z,2.03
2018-06-21T22:29:45.760Z,1.83
2018-06-21T22:32:14.082Z,1.87
2018-06-21T22:34:42.384Z,1.63
2018-06-21T22:37:10.632Z,1.10
2018-06-21T22:39:38.936Z,2.23
2018-06-21T22:42:07.195Z,1.77
2018-06-21T22:44:35.471Z,2.77
2018-06-21T22:47:03.726Z,1.83
2018-06-21T22:49:31.997Z,1.70
2018-06-21T22:52:00.260Z,1.57
2018-06-21T22:54:28.507Z,1.60
2018-06-21T22:56:56.768Z,2.40
2018-06-21T22:59:25.073Z,1.93
2018-06-21T23:01:53.341Z,1.77
2018-06-21T23:04:21.673Z,2.37
2018-06-21T23:06:49.991Z,1.70
2018-06-21T23:09:18.736Z,1.60
2018-06-21T23:11:47.002Z,1.53
2018-06-21T23:14:15.284Z,2.20
2018-06-21T23:16:43.546Z,1.63
2018-06-21T23:19:24.166Z,1.70
2018-06-21T23:21:52.420Z,1.60
2018-06-21T23:24:20.683Z,2.13
2018-06-21T23:26:49.104Z,2.00
2018-06-21T23:29:17.629Z,2.13
2018-06-21T23:31:45.916Z,1.70
2018-06-21T23:34:14.258Z,1.70
2018-06-21T23:36:42.529Z,1.87
2018-06-21T23:39:11.689Z,2.30
2018-06-21T23:41:40.712Z,1.33
2018-06-21T23:44:09.194Z,1.70
2018-06-21T23:46:37.565Z,1.57
2018-06-21T23:49:06.161Z,1.80
2018-06-21T23:51:34.644Z,1.70
2018-06-21T23:54:02.899Z,1.83
2018-06-21T23:56:31.177Z,1.93
2018-06-21T23:58:59.425Z,1.93
